sensor_id;sensor_type;location;lat;lon;timestamp;P1;durP1;ratioP1;P2;durP2;ratioP2
7203;SDS011;3643;52.460;13.322;2024-01-10T00:01:01;67.47;;;28.57;;
7203;SDS011;3643;52.460;13.322;2024-01-10T00:03:30;64.93;;;28.07;;
7203;SDS011;3643;52.460;13.322;2024-01-10T00:06:00;61.90;;;28.47;;
7203;SDS011;3643;52.460;13.322;2024-01-10T00:08:30;70.47;;;27.77;;
7203;SDS011;3643;52.460;13.322;2024-01-10T00:10:58;65.77;;;27.87;;
7203;SDS011;3643;52.460;13.322;2024-01-10T00:13:27;65.03;;;27.67;;
7203;SDS011;3643;52.460;13.322;2024-01-10T00:15:55;58.83;;;26.63;;
7203;SDS011;3643;52.460;13.322;2024-01-10T00:18:25;77.77;;;30.97;;
7203;SDS011;3643;52.460;13.322;2024-01-10T00:20:53;75.30;;;29.47;;
7203;SDS011;3643;52.460;13.322;2024-01-10T00:23:22;72.13;;;28.87;;
7203;SDS011;3643;52.460;13.322;2024-01-10T00:25:50;67.53;;;29.47;;
7203;SDS011;3643;52.460;13.322;2024-01-10T00:28:18;65.63;;;27.03;;
7203;SDS011;3643;52.460;13.322;2024-01-10T00:30:46;71.50;;;28.17;;
7203;SDS011;3643;52.460;13.322;2024-01-10T00:33:15;73.90;;;29.73;;
7203;SDS011;3643;52.460;13.322;2024-01-10T00:35:43;65.17;;;29.67;;
7203;SDS011;3643;52.460;13.322;2024-01-10T00:38:11;71.53;;;29.10;;
7203;SDS011;3643;52.460;13.322;2024-01-10T00:40:40;71.50;;;29.10;;
7203;SDS011;3643;52.460;13.322;2024-01-10T00:43:08;67.27;;;29.03;;
7203;SDS011;3643;52.460;13.322;2024-01-10T00:45:36;74.17;;;30.27;;
7203;SDS011;3643;52.460;13.322;2024-01-10T00:48:05;67.80;;;27.60;;
7203;SDS011;3643;52.460;13.322;2024-01-10T00:50:33;64.80;;;27.77;;
7203;SDS011;3643;52.460;13.322;2024-01-10T00:53:01;68.47;;;28.77;;
7203;SDS011;3643;52.460;13.322;2024-01-10T00:55:29;66.33;;;29.40;;
7203;SDS011;3643;52.460;13.322;2024-01-10T00:57:58;75.70;;;30.07;;
7203;SDS011;3643;52.460;13.322;2024-01-10T01:00:26;71.00;;;28.87;;
7203;SDS011;3643;52.460;13.322;2024-01-10T01:02:54;71.43;;;30.03;;
7203;SDS011;3643;52.460;13.322;2024-01-10T01:05:22;74.43;;;30.43;;
7203;SDS011;3643;52.460;13.322;2024-01-10T01:07:50;71.93;;;30.07;;
7203;SDS011;3643;52.460;13.322;2024-01-10T01:10:19;68.10;;;28.20;;
7203;SDS011;3643;52.460;13.322;2024-01-10T01:12:47;59.47;;;26.40;;
7203;SDS011;3643;52.460;13.322;2024-01-10T01:15:16;65.83;;;29.03;;
7203;SDS011;3643;52.460;13.322;2024-01-10T01:17:44;68.43;;;29.33;;
7203;SDS011;3643;52.460;13.322;2024-01-10T01:20:12;69.63;;;29.43;;
7203;SDS011;3643;52.460;13.322;2024-01-10T01:22:40;79.83;;;31.67;;
7203;SDS011;3643;52.460;13.322;2024-01-10T01:25:09;75.43;;;30.20;;
7203;SDS011;3643;52.460;13.322;2024-01-10T01:27:37;72.77;;;30.00;;
7203;SDS011;3643;52.460;13.322;2024-01-10T01:30:05;73.17;;;29.23;;
7203;SDS011;3643;52.460;13.322;2024-01-10T01:32:36;68.80;;;26.63;;
7203;SDS011;3643;52.460;13.322;2024-01-10T01:35:04;64.47;;;27.53;;
7203;SDS011;3643;52.460;13.322;2024-01-10T01:37:32;58.13;;;26.43;;
7203;SDS011;3643;52.460;13.322;2024-01-10T01:40:01;68.87;;;28.50;;
7203;SDS011;3643;52.460;13.322;2024-01-10T01:42:29;63.93;;;26.90;;
7203;SDS011;3643;52.460;13.322;2024-01-10T01:44:57;69.23;;;29.13;;
7203;SDS011;3643;52.460;13.322;2024-01-10T01:47:25;68.33;;;29.30;;
7203;SDS011;3643;52.460;13.322;2024-01-10T01:49:55;81.33;;;30.43;;
7203;SDS011;3643;52.460;13.322;2024-01-10T01:52:24;69.30;;;27.63;;
7203;SDS011;3643;52.460;13.322;2024-01-10T01:54:53;70.50;;;27.80;;
7203;SDS011;3643;52.460;13.322;2024-01-10T01:57:21;69.60;;;28.47;;
7203;SDS011;3643;52.460;13.322;2024-01-10T01:59:49;77.27;;;30.60;;
7203;SDS011;3643;52.460;13.322;2024-01-10T02:02:17;76.67;;;31.37;;
7203;SDS011;3643;52.460;13.322;2024-01-10T02:04:46;68.10;;;29.70;;
7203;SDS011;3643;52.460;13.322;2024-01-10T02:07:15;65.70;;;29.67;;
7203;SDS011;3643;52.460;13.322;2024-01-10T02:09:44;72.33;;;31.57;;
7203;SDS011;3643;52.460;13.322;2024-01-10T02:12:12;66.27;;;27.67;;
7203;SDS011;3643;52.460;13.322;2024-01-10T02:14:40;72.10;;;29.73;;
7203;SDS011;3643;52.460;13.322;2024-01-10T02:17:08;73.60;;;29.10;;
7203;SDS011;3643;52.460;13.322;2024-01-10T02:19:36;63.17;;;26.77;;
7203;SDS011;3643;52.460;13.322;2024-01-10T02:22:04;66.73;;;29.30;;
7203;SDS011;3643;52.460;13.322;2024-01-10T02:24:33;62.87;;;27.40;;
7203;SDS011;3643;52.460;13.322;2024-01-10T02:27:03;71.17;;;28.23;;
7203;SDS011;3643;52.460;13.322;2024-01-10T02:29:31;66.97;;;28.37;;
7203;SDS011;3643;52.460;13.322;2024-01-10T02:32:01;67.53;;;29.13;;
7203;SDS011;3643;52.460;13.322;2024-01-10T02:34:29;68.97;;;29.50;;
7203;SDS011;3643;52.460;13.322;2024-01-10T02:36:58;68.07;;;27.70;;
7203;SDS011;3643;52.460;13.322;2024-01-10T02:39:26;72.00;;;28.30;;
7203;SDS011;3643;52.460;13.322;2024-01-10T02:41:54;71.37;;;28.03;;
7203;SDS011;3643;52.460;13.322;2024-01-10T02:44:23;56.93;;;26.87;;
7203;SDS011;3643;52.460;13.322;2024-01-10T02:46:51;64.90;;;27.77;;
7203;SDS011;3643;52.460;13.322;2024-01-10T02:49:19;70.37;;;29.23;;
7203;SDS011;3643;52.460;13.322;2024-01-10T02:51:47;63.60;;;27.70;;
7203;SDS011;3643;52.460;13.322;2024-01-10T02:54:15;72.40;;;29.00;;
7203;SDS011;3643;52.460;13.322;2024-01-10T02:56:43;69.43;;;28.97;;
7203;SDS011;3643;52.460;13.322;2024-01-10T02:59:11;70.77;;;27.47;;
7203;SDS011;3643;52.460;13.322;2024-01-10T03:01:41;73.60;;;29.43;;
7203;SDS011;3643;52.460;13.322;2024-01-10T03:04:10;70.53;;;29.23;;
7203;SDS011;3643;52.460;13.322;2024-01-10T03:06:39;64.77;;;26.93;;
7203;SDS011;3643;52.460;13.322;2024-01-10T03:09:07;62.93;;;27.07;;
7203;SDS011;3643;52.460;13.322;2024-01-10T03:11:35;72.47;;;28.80;;
7203;SDS011;3643;52.460;13.322;2024-01-10T03:14:03;67.90;;;29.03;;
7203;SDS011;3643;52.460;13.322;2024-01-10T03:16:35;66.03;;;27.80;;
7203;SDS011;3643;52.460;13.322;2024-01-10T03:19:05;69.87;;;27.97;;
7203;SDS011;3643;52.460;13.322;2024-01-10T03:21:33;59.43;;;28.13;;
7203;SDS011;3643;52.460;13.322;2024-01-10T03:24:01;65.33;;;28.17;;
7203;SDS011;3643;52.460;13.322;2024-01-10T03:26:29;66.93;;;28.73;;
7203;SDS011;3643;52.460;13.322;2024-01-10T03:28:57;71.73;;;30.77;;
7203;SDS011;3643;52.460;13.322;2024-01-10T03:31:27;67.40;;;28.77;;
7203;SDS011;3643;52.460;13.322;2024-01-10T03:33:56;75.03;;;30.23;;
7203;SDS011;3643;52.460;13.322;2024-01-10T03:36:27;69.80;;;30.17;;
7203;SDS011;3643;52.460;13.322;2024-01-10T03:38:55;74.40;;;28.63;;
7203;SDS011;3643;52.460;13.322;2024-01-10T03:41:23;76.80;;;29.80;;
7203;SDS011;3643;52.460;13.322;2024-01-10T03:43:51;71.13;;;30.47;;
7203;SDS011;3643;52.460;13.322;2024-01-10T03:46:19;79.00;;;30.63;;
7203;SDS011;3643;52.460;13.322;2024-01-10T03:48:47;71.77;;;29.37;;
7203;SDS011;3643;52.460;13.322;2024-01-10T03:51:15;74.70;;;30.33;;
7203;SDS011;3643;52.460;13.322;2024-01-10T03:53:45;70.73;;;29.53;;
7203;SDS011;3643;52.460;13.322;2024-01-10T03:56:15;70.27;;;30.83;;
7203;SDS011;3643;52.460;13.322;2024-01-10T03:58:43;67.20;;;31.43;;
7203;SDS011;3643;52.460;13.322;2024-01-10T04:01:14;75.97;;;30.50;;
7203;SDS011;3643;52.460;13.322;2024-01-10T04:03:42;71.50;;;29.57;;
7203;SDS011;3643;52.460;13.322;2024-01-10T04:06:11;70.83;;;29.87;;
7203;SDS011;3643;52.460;13.322;2024-01-10T04:08:39;72.17;;;29.37;;
7203;SDS011;3643;52.460;13.322;2024-01-10T04:11:08;73.27;;;29.97;;
7203;SDS011;3643;52.460;13.322;2024-01-10T04:13:36;71.10;;;29.90;;
7203;SDS011;3643;52.460;13.322;2024-01-10T04:16:04;65.20;;;28.77;;
7203;SDS011;3643;52.460;13.322;2024-01-10T04:18:34;79.97;;;30.17;;
7203;SDS011;3643;52.460;13.322;2024-01-10T04:21:02;76.80;;;30.50;;
7203;SDS011;3643;52.460;13.322;2024-01-10T04:23:30;74.03;;;30.50;;
7203;SDS011;3643;52.460;13.322;2024-01-10T04:26:00;68.90;;;28.80;;
7203;SDS011;3643;52.460;13.322;2024-01-10T04:28:30;73.50;;;28.57;;
7203;SDS011;3643;52.460;13.322;2024-01-10T04:30:58;67.40;;;28.47;;
7203;SDS011;3643;52.460;13.322;2024-01-10T04:33:26;69.33;;;27.87;;
7203;SDS011;3643;52.460;13.322;2024-01-10T04:35:55;70.23;;;29.13;;
7203;SDS011;3643;52.460;13.322;2024-01-10T04:38:23;64.60;;;28.23;;
7203;SDS011;3643;52.460;13.322;2024-01-10T04:40:52;66.00;;;28.43;;
7203;SDS011;3643;52.460;13.322;2024-01-10T04:43:21;64.93;;;27.73;;
7203;SDS011;3643;52.460;13.322;2024-01-10T04:45:50;72.90;;;29.37;;
7203;SDS011;3643;52.460;13.322;2024-01-10T04:48:18;71.00;;;27.87;;
7203;SDS011;3643;52.460;13.322;2024-01-10T04:50:46;59.77;;;26.27;;
7203;SDS011;3643;52.460;13.322;2024-01-10T04:53:14;70.07;;;27.90;;
7203;SDS011;3643;52.460;13.322;2024-01-10T04:55:42;69.13;;;28.63;;
7203;SDS011;3643;52.460;13.322;2024-01-10T04:58:14;67.83;;;28.47;;
7203;SDS011;3643;52.460;13.322;2024-01-10T05:00:42;69.00;;;27.40;;
7203;SDS011;3643;52.460;13.322;2024-01-10T05:03:11;69.80;;;28.30;;
7203;SDS011;3643;52.460;13.322;2024-01-10T05:05:39;70.90;;;29.13;;
7203;SDS011;3643;52.460;13.322;2024-01-10T05:08:07;66.83;;;28.47;;
7203;SDS011;3643;52.460;13.322;2024-01-10T05:10:35;75.47;;;30.87;;
7203;SDS011;3643;52.460;13.322;2024-01-10T05:13:03;61.83;;;26.67;;
7203;SDS011;3643;52.460;13.322;2024-01-10T05:15:31;60.73;;;26.17;;
7203;SDS011;3643;52.460;13.322;2024-01-10T05:17:59;65.37;;;28.43;;
7203;SDS011;3643;52.460;13.322;2024-01-10T05:20:30;66.33;;;28.20;;
7203;SDS011;3643;52.460;13.322;2024-01-10T05:22:59;56.10;;;25.80;;
7203;SDS011;3643;52.460;13.322;2024-01-10T05:25:28;66.90;;;28.33;;
7203;SDS011;3643;52.460;13.322;2024-01-10T05:27:56;62.53;;;26.93;;
7203;SDS011;3643;52.460;13.322;2024-01-10T05:30:24;63.60;;;27.93;;
7203;SDS011;3643;52.460;13.322;2024-01-10T05:32:54;66.63;;;27.17;;
7203;SDS011;3643;52.460;13.322;2024-01-10T05:35:22;64.17;;;27.63;;
7203;SDS011;3643;52.460;13.322;2024-01-10T05:37:53;71.00;;;30.07;;
7203;SDS011;3643;52.460;13.322;2024-01-10T05:40:22;57.57;;;26.33;;
7203;SDS011;3643;52.460;13.322;2024-01-10T05:42:51;64.57;;;27.53;;
7203;SDS011;3643;52.460;13.322;2024-01-10T05:45:18;71.33;;;29.90;;
7203;SDS011;3643;52.460;13.322;2024-01-10T05:47:46;66.70;;;28.53;;
7203;SDS011;3643;52.460;13.322;2024-01-10T05:50:15;75.20;;;31.63;;
7203;SDS011;3643;52.460;13.322;2024-01-10T05:52:44;68.83;;;28.37;;
7203;SDS011;3643;52.460;13.322;2024-01-10T05:55:16;76.03;;;29.97;;
7203;SDS011;3643;52.460;13.322;2024-01-10T05:57:45;81.43;;;30.33;;
7203;SDS011;3643;52.460;13.322;2024-01-10T06:00:13;73.70;;;29.90;;
7203;SDS011;3643;52.460;13.322;2024-01-10T06:02:43;78.47;;;32.70;;
7203;SDS011;3643;52.460;13.322;2024-01-10T06:05:11;75.70;;;30.03;;
7203;SDS011;3643;52.460;13.322;2024-01-10T06:07:39;69.47;;;29.63;;
7203;SDS011;3643;52.460;13.322;2024-01-10T06:10:08;73.53;;;32.20;;
7203;SDS011;3643;52.460;13.322;2024-01-10T06:12:38;71.73;;;30.33;;
7203;SDS011;3643;52.460;13.322;2024-01-10T06:15:07;86.13;;;30.50;;
7203;SDS011;3643;52.460;13.322;2024-01-10T06:17:36;79.53;;;30.53;;
7203;SDS011;3643;52.460;13.322;2024-01-10T06:20:04;76.47;;;32.40;;
7203;SDS011;3643;52.460;13.322;2024-01-10T06:22:33;75.57;;;30.00;;
7203;SDS011;3643;52.460;13.322;2024-01-10T06:25:01;70.50;;;29.73;;
7203;SDS011;3643;52.460;13.322;2024-01-10T06:27:30;75.07;;;31.23;;
7203;SDS011;3643;52.460;13.322;2024-01-10T06:30:00;69.50;;;29.63;;
7203;SDS011;3643;52.460;13.322;2024-01-10T06:32:29;71.63;;;30.57;;
7203;SDS011;3643;52.460;13.322;2024-01-10T06:34:57;72.47;;;29.33;;
7203;SDS011;3643;52.460;13.322;2024-01-10T06:37:27;67.87;;;29.07;;
7203;SDS011;3643;52.460;13.322;2024-01-10T06:39:55;70.77;;;29.80;;
7203;SDS011;3643;52.460;13.322;2024-01-10T06:42:24;72.20;;;27.93;;
7203;SDS011;3643;52.460;13.322;2024-01-10T06:44:52;67.17;;;29.20;;
7203;SDS011;3643;52.460;13.322;2024-01-10T06:47:22;68.33;;;28.97;;
7203;SDS011;3643;52.460;13.322;2024-01-10T06:49:50;66.10;;;29.33;;
7203;SDS011;3643;52.460;13.322;2024-01-10T06:52:18;70.03;;;29.77;;
7203;SDS011;3643;52.460;13.322;2024-01-10T06:54:46;73.10;;;29.40;;
7203;SDS011;3643;52.460;13.322;2024-01-10T06:57:14;65.10;;;28.47;;
7203;SDS011;3643;52.460;13.322;2024-01-10T06:59:42;73.30;;;31.10;;
7203;SDS011;3643;52.460;13.322;2024-01-10T07:02:10;71.07;;;29.07;;
7203;SDS011;3643;52.460;13.322;2024-01-10T07:04:40;72.60;;;29.33;;
7203;SDS011;3643;52.460;13.322;2024-01-10T07:07:08;68.80;;;29.77;;
7203;SDS011;3643;52.460;13.322;2024-01-10T07:09:37;76.27;;;30.93;;
7203;SDS011;3643;52.460;13.322;2024-01-10T07:12:07;75.33;;;29.87;;
7203;SDS011;3643;52.460;13.322;2024-01-10T07:14:35;76.00;;;29.57;;
7203;SDS011;3643;52.460;13.322;2024-01-10T07:17:03;73.07;;;30.90;;
7203;SDS011;3643;52.460;13.322;2024-01-10T07:19:31;70.07;;;29.97;;
7203;SDS011;3643;52.460;13.322;2024-01-10T07:22:01;75.30;;;30.13;;
7203;SDS011;3643;52.460;13.322;2024-01-10T07:24:29;68.73;;;28.97;;
7203;SDS011;3643;52.460;13.322;2024-01-10T07:26:57;69.37;;;29.07;;
7203;SDS011;3643;52.460;13.322;2024-01-10T07:29:25;76.53;;;31.40;;
7203;SDS011;3643;52.460;13.322;2024-01-10T07:31:53;72.57;;;29.93;;
7203;SDS011;3643;52.460;13.322;2024-01-10T07:34:21;72.30;;;29.27;;
7203;SDS011;3643;52.460;13.322;2024-01-10T07:36:49;80.37;;;31.53;;
7203;SDS011;3643;52.460;13.322;2024-01-10T07:39:19;71.03;;;29.20;;
7203;SDS011;3643;52.460;13.322;2024-01-10T07:41:47;78.90;;;30.77;;
7203;SDS011;3643;52.460;13.322;2024-01-10T07:44:16;76.10;;;30.47;;
7203;SDS011;3643;52.460;13.322;2024-01-10T07:46:44;77.93;;;29.63;;
7203;SDS011;3643;52.460;13.322;2024-01-10T07:49:12;69.80;;;29.53;;
7203;SDS011;3643;52.460;13.322;2024-01-10T07:51:43;76.20;;;28.83;;
7203;SDS011;3643;52.460;13.322;2024-01-10T07:54:11;76.47;;;29.90;;
7203;SDS011;3643;52.460;13.322;2024-01-10T07:56:40;68.13;;;30.17;;
7203;SDS011;3643;52.460;13.322;2024-01-10T07:59:08;71.63;;;29.77;;
7203;SDS011;3643;52.460;13.322;2024-01-10T08:01:39;71.37;;;30.57;;
7203;SDS011;3643;52.460;13.322;2024-01-10T08:04:07;76.80;;;29.53;;
7203;SDS011;3643;52.460;13.322;2024-01-10T08:06:38;76.87;;;32.27;;
7203;SDS011;3643;52.460;13.322;2024-01-10T08:09:06;74.43;;;30.77;;
7203;SDS011;3643;52.460;13.322;2024-01-10T08:11:34;70.50;;;30.10;;
7203;SDS011;3643;52.460;13.322;2024-01-10T08:14:04;79.67;;;31.00;;
7203;SDS011;3643;52.460;13.322;2024-01-10T08:16:32;74.60;;;29.53;;
7203;SDS011;3643;52.460;13.322;2024-01-10T08:19:00;71.43;;;29.90;;
7203;SDS011;3643;52.460;13.322;2024-01-10T08:21:28;66.07;;;28.30;;
7203;SDS011;3643;52.460;13.322;2024-01-10T08:23:56;66.30;;;27.47;;
7203;SDS011;3643;52.460;13.322;2024-01-10T08:26:24;71.10;;;28.97;;
7203;SDS011;3643;52.460;13.322;2024-01-10T08:28:54;73.30;;;30.27;;
7203;SDS011;3643;52.460;13.322;2024-01-10T08:31:24;69.67;;;30.23;;
7203;SDS011;3643;52.460;13.322;2024-01-10T08:33:53;70.83;;;30.83;;
7203;SDS011;3643;52.460;13.322;2024-01-10T08:36:23;69.70;;;28.53;;
7203;SDS011;3643;52.460;13.322;2024-01-10T08:38:51;75.50;;;31.97;;
7203;SDS011;3643;52.460;13.322;2024-01-10T08:41:19;76.70;;;30.83;;
7203;SDS011;3643;52.460;13.322;2024-01-10T08:43:47;74.90;;;30.13;;
7203;SDS011;3643;52.460;13.322;2024-01-10T08:46:15;81.23;;;32.83;;
7203;SDS011;3643;52.460;13.322;2024-01-10T08:48:45;76.10;;;30.50;;
7203;SDS011;3643;52.460;13.322;2024-01-10T08:51:14;80.13;;;32.77;;
7203;SDS011;3643;52.460;13.322;2024-01-10T08:53:42;79.20;;;30.27;;
7203;SDS011;3643;52.460;13.322;2024-01-10T08:56:11;70.63;;;30.20;;
7203;SDS011;3643;52.460;13.322;2024-01-10T08:58:39;68.27;;;28.20;;
7203;SDS011;3643;52.460;13.322;2024-01-10T09:01:07;72.80;;;29.97;;
7203;SDS011;3643;52.460;13.322;2024-01-10T09:03:36;69.47;;;27.90;;
7203;SDS011;3643;52.460;13.322;2024-01-10T09:06:06;62.40;;;27.93;;
7203;SDS011;3643;52.460;13.322;2024-01-10T09:08:37;66.30;;;28.23;;
7203;SDS011;3643;52.460;13.322;2024-01-10T09:11:06;79.07;;;30.87;;
7203;SDS011;3643;52.460;13.322;2024-01-10T09:13:34;64.90;;;28.17;;
7203;SDS011;3643;52.460;13.322;2024-01-10T09:16:04;66.63;;;28.57;;
7203;SDS011;3643;52.460;13.322;2024-01-10T09:18:32;67.40;;;30.50;;
7203;SDS011;3643;52.460;13.322;2024-01-10T09:21:01;80.00;;;32.30;;
7203;SDS011;3643;52.460;13.322;2024-01-10T09:23:32;71.73;;;30.07;;
7203;SDS011;3643;52.460;13.322;2024-01-10T09:26:00;69.60;;;29.93;;
7203;SDS011;3643;52.460;13.322;2024-01-10T09:28:28;70.60;;;29.87;;
7203;SDS011;3643;52.460;13.322;2024-01-10T09:30:56;82.27;;;30.83;;
7203;SDS011;3643;52.460;13.322;2024-01-10T09:33:24;70.40;;;29.77;;
7203;SDS011;3643;52.460;13.322;2024-01-10T09:35:52;66.70;;;28.50;;
7203;SDS011;3643;52.460;13.322;2024-01-10T09:38:22;71.60;;;28.27;;
7203;SDS011;3643;52.460;13.322;2024-01-10T09:40:52;68.70;;;29.60;;
7203;SDS011;3643;52.460;13.322;2024-01-10T09:43:27;63.73;;;27.50;;
7203;SDS011;3643;52.460;13.322;2024-01-10T09:45:57;56.83;;;26.83;;
7203;SDS011;3643;52.460;13.322;2024-01-10T09:48:26;68.20;;;28.67;;
7203;SDS011;3643;52.460;13.322;2024-01-10T09:50:54;67.10;;;28.30;;
7203;SDS011;3643;52.460;13.322;2024-01-10T09:53:24;62.93;;;27.90;;
7203;SDS011;3643;52.460;13.322;2024-01-10T09:55:54;62.70;;;27.20;;
7203;SDS011;3643;52.460;13.322;2024-01-10T09:58:23;58.73;;;26.80;;
7203;SDS011;3643;52.460;13.322;2024-01-10T10:00:52;67.00;;;28.33;;
7203;SDS011;3643;52.460;13.322;2024-01-10T10:03:20;63.07;;;27.50;;
7203;SDS011;3643;52.460;13.322;2024-01-10T10:05:48;65.33;;;27.60;;
7203;SDS011;3643;52.460;13.322;2024-01-10T10:08:16;66.80;;;28.87;;
7203;SDS011;3643;52.460;13.322;2024-01-10T10:10:48;66.83;;;28.63;;
7203;SDS011;3643;52.460;13.322;2024-01-10T10:13:25;60.10;;;27.77;;
7203;SDS011;3643;52.460;13.322;2024-01-10T10:15:57;64.47;;;27.37;;
7203;SDS011;3643;52.460;13.322;2024-01-10T10:18:26;57.33;;;26.03;;
7203;SDS011;3643;52.460;13.322;2024-01-10T10:21:05;66.60;;;25.63;;
7203;SDS011;3643;52.460;13.322;2024-01-10T10:23:36;67.13;;;28.40;;
7203;SDS011;3643;52.460;13.322;2024-01-10T10:26:09;66.07;;;29.60;;
7203;SDS011;3643;52.460;13.322;2024-01-10T10:28:41;64.27;;;27.47;;
7203;SDS011;3643;52.460;13.322;2024-01-10T10:31:10;63.53;;;26.93;;
7203;SDS011;3643;52.460;13.322;2024-01-10T10:33:38;66.17;;;28.87;;
7203;SDS011;3643;52.460;13.322;2024-01-10T10:36:07;63.30;;;28.43;;
7203;SDS011;3643;52.460;13.322;2024-01-10T10:38:35;65.47;;;27.70;;
7203;SDS011;3643;52.460;13.322;2024-01-10T10:41:04;60.67;;;26.03;;
7203;SDS011;3643;52.460;13.322;2024-01-10T10:43:37;65.90;;;29.23;;
7203;SDS011;3643;52.460;13.322;2024-01-10T10:46:08;53.73;;;25.83;;
7203;SDS011;3643;52.460;13.322;2024-01-10T10:48:39;66.10;;;27.83;;
7203;SDS011;3643;52.460;13.322;2024-01-10T10:51:08;69.27;;;28.87;;
7203;SDS011;3643;52.460;13.322;2024-01-10T10:53:37;59.53;;;26.83;;
7203;SDS011;3643;52.460;13.322;2024-01-10T10:56:07;60.00;;;26.10;;
7203;SDS011;3643;52.460;13.322;2024-01-10T10:58:38;57.80;;;25.77;;
7203;SDS011;3643;52.460;13.322;2024-01-10T11:01:09;58.13;;;26.17;;
7203;SDS011;3643;52.460;13.322;2024-01-10T11:03:39;53.43;;;25.43;;
7203;SDS011;3643;52.460;13.322;2024-01-10T11:06:11;54.20;;;24.67;;
7203;SDS011;3643;52.460;13.322;2024-01-10T11:08:40;54.53;;;23.60;;
7203;SDS011;3643;52.460;13.322;2024-01-10T11:11:15;49.00;;;22.03;;
7203;SDS011;3643;52.460;13.322;2024-01-10T11:14:02;52.50;;;21.80;;
7203;SDS011;3643;52.460;13.322;2024-01-10T11:16:50;52.30;;;24.00;;
7203;SDS011;3643;52.460;13.322;2024-01-10T11:22:43;53.63;;;22.57;;
7203;SDS011;3643;52.460;13.322;2024-01-10T11:25:20;47.60;;;21.93;;
7203;SDS011;3643;52.460;13.322;2024-01-10T11:27:51;42.80;;;19.67;;
7203;SDS011;3643;52.460;13.322;2024-01-10T11:30:30;45.47;;;20.97;;
7203;SDS011;3643;52.460;13.322;2024-01-10T11:33:07;44.27;;;20.93;;
7203;SDS011;3643;52.460;13.322;2024-01-10T11:38:38;48.43;;;21.47;;
7203;SDS011;3643;52.460;13.322;2024-01-10T11:41:12;74.47;;;32.73;;
7203;SDS011;3643;52.460;13.322;2024-01-10T11:43:42;49.43;;;22.30;;
7203;SDS011;3643;52.460;13.322;2024-01-10T11:46:10;47.43;;;21.27;;
7203;SDS011;3643;52.460;13.322;2024-01-10T11:48:41;41.90;;;20.50;;
7203;SDS011;3643;52.460;13.322;2024-01-10T11:51:09;44.87;;;21.27;;
7203;SDS011;3643;52.460;13.322;2024-01-10T11:53:37;43.23;;;20.10;;
7203;SDS011;3643;52.460;13.322;2024-01-10T11:56:09;46.63;;;20.40;;
7203;SDS011;3643;52.460;13.322;2024-01-10T11:58:55;43.90;;;20.03;;
7203;SDS011;3643;52.460;13.322;2024-01-10T12:01:28;45.63;;;20.33;;
7203;SDS011;3643;52.460;13.322;2024-01-10T12:03:57;49.90;;;20.63;;
7203;SDS011;3643;52.460;13.322;2024-01-10T12:06:43;46.37;;;19.83;;
7203;SDS011;3643;52.460;13.322;2024-01-10T12:09:13;42.07;;;19.63;;
7203;SDS011;3643;52.460;13.322;2024-01-10T12:11:41;44.03;;;19.70;;
7203;SDS011;3643;52.460;13.322;2024-01-10T12:14:09;43.27;;;19.10;;
7203;SDS011;3643;52.460;13.322;2024-01-10T12:16:38;45.10;;;19.80;;
7203;SDS011;3643;52.460;13.322;2024-01-10T12:19:07;41.63;;;18.47;;
7203;SDS011;3643;52.460;13.322;2024-01-10T12:21:35;43.37;;;18.97;;
7203;SDS011;3643;52.460;13.322;2024-01-10T12:24:04;36.13;;;17.93;;
7203;SDS011;3643;52.460;13.322;2024-01-10T12:26:33;41.77;;;18.17;;
7203;SDS011;3643;52.460;13.322;2024-01-10T12:29:02;37.80;;;18.30;;
7203;SDS011;3643;52.460;13.322;2024-01-10T12:31:33;42.63;;;17.90;;
7203;SDS011;3643;52.460;13.322;2024-01-10T12:34:01;41.53;;;18.10;;
7203;SDS011;3643;52.460;13.322;2024-01-10T12:36:34;42.43;;;18.83;;
7203;SDS011;3643;52.460;13.322;2024-01-10T12:39:03;41.97;;;19.13;;
7203;SDS011;3643;52.460;13.322;2024-01-10T12:41:33;39.70;;;18.13;;
7203;SDS011;3643;52.460;13.322;2024-01-10T12:44:02;42.10;;;18.20;;
7203;SDS011;3643;52.460;13.322;2024-01-10T12:46:33;75.97;;;35.63;;
7203;SDS011;3643;52.460;13.322;2024-01-10T12:49:02;68.67;;;31.87;;
7203;SDS011;3643;52.460;13.322;2024-01-10T12:51:32;37.50;;;18.27;;
7203;SDS011;3643;52.460;13.322;2024-01-10T12:54:04;40.87;;;17.70;;
7203;SDS011;3643;52.460;13.322;2024-01-10T12:56:32;38.17;;;17.77;;
7203;SDS011;3643;52.460;13.322;2024-01-10T12:59:00;40.03;;;18.43;;
7203;SDS011;3643;52.460;13.322;2024-01-10T13:01:28;37.13;;;17.90;;
7203;SDS011;3643;52.460;13.322;2024-01-10T13:03:57;40.67;;;17.87;;
7203;SDS011;3643;52.460;13.322;2024-01-10T13:06:25;38.80;;;17.53;;
7203;SDS011;3643;52.460;13.322;2024-01-10T13:08:54;37.53;;;17.77;;
7203;SDS011;3643;52.460;13.322;2024-01-10T13:11:23;38.93;;;17.37;;
7203;SDS011;3643;52.460;13.322;2024-01-10T13:13:52;37.47;;;16.50;;
7203;SDS011;3643;52.460;13.322;2024-01-10T13:16:20;38.43;;;17.43;;
7203;SDS011;3643;52.460;13.322;2024-01-10T13:18:48;32.70;;;15.67;;
7203;SDS011;3643;52.460;13.322;2024-01-10T13:21:17;31.83;;;15.17;;
7203;SDS011;3643;52.460;13.322;2024-01-10T13:23:45;31.20;;;14.73;;
7203;SDS011;3643;52.460;13.322;2024-01-10T13:26:13;30.50;;;15.00;;
7203;SDS011;3643;52.460;13.322;2024-01-10T13:28:43;32.63;;;14.33;;
7203;SDS011;3643;52.460;13.322;2024-01-10T13:31:11;29.40;;;14.30;;
7203;SDS011;3643;52.460;13.322;2024-01-10T13:33:39;33.20;;;15.50;;
7203;SDS011;3643;52.460;13.322;2024-01-10T13:36:13;33.57;;;15.57;;
7203;SDS011;3643;52.460;13.322;2024-01-10T13:38:41;35.13;;;15.93;;
7203;SDS011;3643;52.460;13.322;2024-01-10T13:41:09;34.23;;;16.30;;
7203;SDS011;3643;52.460;13.322;2024-01-10T13:43:37;33.87;;;16.53;;
7203;SDS011;3643;52.460;13.322;2024-01-10T13:46:07;36.47;;;14.93;;
7203;SDS011;3643;52.460;13.322;2024-01-10T13:48:35;35.17;;;15.13;;
7203;SDS011;3643;52.460;13.322;2024-01-10T13:51:04;39.83;;;17.33;;
7203;SDS011;3643;52.460;13.322;2024-01-10T13:53:33;33.00;;;14.67;;
7203;SDS011;3643;52.460;13.322;2024-01-10T13:56:02;32.73;;;15.13;;
7203;SDS011;3643;52.460;13.322;2024-01-10T13:58:31;32.37;;;15.70;;
7203;SDS011;3643;52.460;13.322;2024-01-10T14:00:59;36.97;;;16.40;;
7203;SDS011;3643;52.460;13.322;2024-01-10T14:03:29;30.93;;;14.83;;
7203;SDS011;3643;52.460;13.322;2024-01-10T14:05:59;36.73;;;16.23;;
7203;SDS011;3643;52.460;13.322;2024-01-10T14:08:28;43.30;;;17.33;;
7203;SDS011;3643;52.460;13.322;2024-01-10T14:10:56;38.07;;;17.13;;
7203;SDS011;3643;52.460;13.322;2024-01-10T14:13:24;37.07;;;17.40;;
7203;SDS011;3643;52.460;13.322;2024-01-10T14:15:52;34.17;;;15.47;;
7203;SDS011;3643;52.460;13.322;2024-01-10T14:18:21;36.70;;;16.90;;
7203;SDS011;3643;52.460;13.322;2024-01-10T14:20:50;41.70;;;17.70;;
7203;SDS011;3643;52.460;13.322;2024-01-10T14:23:18;50.40;;;19.50;;
7203;SDS011;3643;52.460;13.322;2024-01-10T14:25:47;41.07;;;17.37;;
7203;SDS011;3643;52.460;13.322;2024-01-10T14:28:15;40.50;;;18.33;;
7203;SDS011;3643;52.460;13.322;2024-01-10T14:30:43;42.50;;;18.00;;
7203;SDS011;3643;52.460;13.322;2024-01-10T14:33:11;40.20;;;18.03;;
7203;SDS011;3643;52.460;13.322;2024-01-10T14:35:40;36.30;;;16.17;;
7203;SDS011;3643;52.460;13.322;2024-01-10T14:38:10;38.40;;;17.97;;
7203;SDS011;3643;52.460;13.322;2024-01-10T14:40:38;40.30;;;17.93;;
7203;SDS011;3643;52.460;13.322;2024-01-10T14:43:06;44.07;;;18.87;;
7203;SDS011;3643;52.460;13.322;2024-01-10T14:45:34;41.60;;;18.43;;
7203;SDS011;3643;52.460;13.322;2024-01-10T14:48:04;37.30;;;16.93;;
7203;SDS011;3643;52.460;13.322;2024-01-10T14:50:33;36.43;;;17.03;;